Time;durP1;ratioP1;P1;durP2;ratioP2;P2;SDS_P1;SDS_P2;PMS_P1;PMS_P2;Temp;Humidity;BMP_temperature;BMP_pressure;BME280_temperature;BME280_humidity;BME280_pressure;Samples;Min_cycle;Max_cycle;Signal;HPM_P1;HPM_P2
2023/04/16 00:02:21;;;;;;;3.20;2.03;;;;;;;;;;4989632;28;20022;-88
2023/04/16 00:04:47;;;;;;;3.30;1.77;;;;;;;;;;4997899;28;20503;-88
2023/04/16 00:07:13;;;;;;;3.42;2.10;;;;;;;;;;4999137;28;20096;-88
2023/04/16 00:09:39;;;;;;;4.43;1.75;;;;;;;;;;5001863;28;20184;-87
2023/04/16 00:12:05;;;;;;;3.60;1.67;;;;;;;;;;4995714;28;20038;-88
2023/04/16 00:14:32;;;;;;;4.45;1.90;;;;;;;;;;5004380;28;20030;-87
2023/04/16 00:16:58;;;;;;;4.03;2.10;;;;;;;;;;4958618;28;20747;-87
2023/04/16 00:19:23;;;;;;;4.43;2.38;;;;;;;;;;4988153;28;20393;-88
2023/04/16 00:21:50;;;;;;;3.45;1.80;;;;;;;;;;4968738;28;20018;-87
2023/04/16 00:24:16;;;;;;;3.40;1.58;;;;;;;;;;4951676;28;21953;-88
2023/04/16 00:26:43;;;;;;;5.07;2.10;;;;;;;;;;4991496;28;20037;-87
2023/04/16 00:29:09;;;;;;;2.83;1.67;;;;;;;;;;4972486;28;20045;-87
2023/04/16 00:31:36;;;;;;;4.22;2.45;;;;;;;;;;4960916;28;20057;-87
2023/04/16 00:34:02;;;;;;;3.58;1.73;;;;;;;;;;4960955;28;20026;-87
2023/04/16 00:36:28;;;;;;;3.08;1.63;;;;;;;;;;4978257;28;20521;-87
2023/04/16 00:38:55;;;;;;;3.63;2.08;;;;;;;;;;4980511;28;20490;-87
2023/04/16 00:41:21;;;;;;;4.50;2.30;;;;;;;;;;4977646;28;20502;-87
2023/04/16 00:43:48;;;;;;;4.07;2.17;;;;;;;;;;4997375;28;20487;-88
2023/04/16 00:46:15;;;;;;;5.75;2.42;;;;;;;;;;4996850;28;20232;-87
2023/04/16 00:48:42;;;;;;;3.72;1.73;;;;;;;;;;4970299;28;20027;-88
2023/04/16 00:51:09;;;;;;;3.85;1.92;;;;;;;;;;4967377;28;20046;-87
2023/04/16 00:53:35;;;;;;;4.28;2.00;;;;;;;;;;4989941;28;20341;-87
2023/04/16 00:56:05;;;;;;;6.85;2.60;;;;;;;;;;4979366;28;20454;-87
2023/04/16 00:58:31;;;;;;;7.72;3.15;;;;;;;;;;4966644;28;20027;-87
2023/04/16 01:00:57;;;;;;;14.15;4.10;;;;;;;;;;4971415;28;20093;-89
2023/04/16 01:03:26;;;;;;;10.68;4.22;;;;;;;;;;4967372;28;20667;-87
2023/04/16 01:05:52;;;;;;;9.30;3.47;;;;;;;;;;5000842;28;20084;-87
2023/04/16 01:08:18;;;;;;;5.90;2.60;;;;;;;;;;4976682;28;20038;-87
2023/04/16 01:10:45;;;;;;;11.80;3.05;;;;;;;;;;4993219;28;20479;-87
2023/04/16 01:13:11;;;;;;;5.93;2.10;;;;;;;;;;4983240;28;20030;-88
2023/04/16 01:15:37;;;;;;;5.57;2.83;;;;;;;;;;4983894;28;20030;-87
2023/04/16 01:18:03;;;;;;;13.40;4.20;;;;;;;;;;4982624;28;20056;-87
2023/04/16 01:20:29;;;;;;;7.13;3.38;;;;;;;;;;5001996;28;20026;-88
2023/04/16 01:22:55;;;;;;;4.78;2.05;;;;;;;;;;4988882;28;20153;-89
2023/04/16 01:25:22;;;;;;;2.65;1.70;;;;;;;;;;4948678;28;20593;-87
2023/04/16 01:27:53;;;;;;;6.30;2.28;;;;;;;;;;4988469;28;20125;-88
2023/04/16 01:30:19;;;;;;;3.53;1.85;;;;;;;;;;4961905;28;20037;-87
2023/04/16 01:32:45;;;;;;;2.65;1.23;;;;;;;;;;4972938;28;20034;-88
2023/04/16 01:35:11;;;;;;;2.70;1.50;;;;;;;;;;4964022;28;20076;-87
2023/04/16 01:37:37;;;;;;;1.45;0.80;;;;;;;;;;4994096;28;20026;-88
2023/04/16 01:40:03;;;;;;;4.95;1.63;;;;;;;;;;4993845;28;20030;-88
2023/04/16 01:42:29;;;;;;;4.18;1.42;;;;;;;;;;4994993;28;20597;-87
2023/04/16 01:44:55;;;;;;;2.80;1.58;;;;;;;;;;4976504;28;20042;-87
2023/04/16 01:47:21;;;;;;;3.45;1.58;;;;;;;;;;4971694;28;20034;-88
2023/04/16 01:49:47;;;;;;;3.65;1.50;;;;;;;;;;4991024;28;20122;-87
2023/04/16 01:52:13;;;;;;;2.17;1.02;;;;;;;;;;4991357;28;20042;-88
2023/04/16 01:54:39;;;;;;;3.25;1.45;;;;;;;;;;4988128;28;20423;-89
2023/04/16 01:57:05;;;;;;;5.05;2.15;;;;;;;;;;4997547;28;20077;-88
2023/04/16 01:59:31;;;;;;;2.55;1.30;;;;;;;;;;4964325;28;20037;-87
2023/04/16 02:02:01;;;;;;;5.80;1.85;;;;;;;;;;4980767;28;20565;-87
2023/04/16 02:04:27;;;;;;;2.25;1.35;;;;;;;;;;5007207;28;20085;-88
2023/04/16 02:06:53;;;;;;;2.00;0.90;;;;;;;;;;4994489;28;20062;-88
2023/04/16 02:09:19;;;;;;;3.83;1.70;;;;;;;;;;4972731;28;20018;-88
2023/04/16 02:11:46;;;;;;;3.08;1.63;;;;;;;;;;4976755;28;20030;-88
2023/04/16 02:14:11;;;;;;;3.92;1.80;;;;;;;;;;4964479;28;20035;-88
2023/04/16 02:16:37;;;;;;;4.80;1.67;;;;;;;;;;4988214;28;20080;-90
2023/04/16 02:19:03;;;;;;;4.85;1.42;;;;;;;;;;4989903;28;20113;-90
2023/04/16 02:21:30;;;;;;;3.08;1.42;;;;;;;;;;4988549;28;20060;-88
2023/04/16 02:23:56;;;;;;;3.63;1.77;;;;;;;;;;5003236;28;20049;-88
2023/04/16 02:26:22;;;;;;;4.40;2.42;;;;;;;;;;4982656;28;20505;-89
2023/04/16 02:28:48;;;;;;;3.72;2.15;;;;;;;;;;4999505;28;20165;-88
2023/04/16 02:31:18;;;;;;;4.68;2.25;;;;;;;;;;4987453;28;20030;-88
2023/04/16 02:33:44;;;;;;;3.17;2.15;;;;;;;;;;4983281;28;20541;-88
2023/04/16 02:36:11;;;;;;;13.45;3.75;;;;;;;;;;4985498;28;20038;-87
2023/04/16 02:38:37;;;;;;;7.40;3.80;;;;;;;;;;5002749;28;20113;-88
2023/04/16 02:41:03;;;;;;;8.57;4.47;;;;;;;;;;4969787;28;20030;-89
2023/04/16 02:43:29;;;;;;;3.97;2.72;;;;;;;;;;4979443;28;20454;-88
2023/04/16 02:45:58;;;;;;;3.85;2.00;;;;;;;;;;4974176;28;20045;-89
2023/04/16 02:48:23;;;;;;;5.03;2.50;;;;;;;;;;4994233;28;20033;-89
2023/04/16 02:50:49;;;;;;;7.05;2.92;;;;;;;;;;4988820;28;20030;-87
2023/04/16 02:53:15;;;;;;;9.40;3.65;;;;;;;;;;4972227;28;20104;-88
2023/04/16 02:55:44;;;;;;;5.65;2.40;;;;;;;;;;4978669;28;20114;-87
2023/04/16 02:58:10;;;;;;;5.47;2.78;;;;;;;;;;4967320;28;20488;-88
2023/04/16 03:00:37;;;;;;;4.15;2.45;;;;;;;;;;5000799;28;20140;-90
2023/04/16 03:03:03;;;;;;;7.95;3.45;;;;;;;;;;4992292;28;21409;-88
2023/04/16 03:05:29;;;;;;;7.90;4.57;;;;;;;;;;5000780;28;20034;-91
2023/04/16 03:07:56;;;;;;;6.57;3.22;;;;;;;;;;4995821;28;20282;-88
2023/04/16 03:10:22;;;;;;;5.93;2.50;;;;;;;;;;4963010;28;20129;-88
2023/04/16 03:12:49;;;;;;;5.93;2.88;;;;;;;;;;4986610;28;20114;-88
2023/04/16 03:15:15;;;;;;;6.00;3.13;;;;;;;;;;4991157;28;20037;-88
2023/04/16 03:17:41;;;;;;;5.07;2.78;;;;;;;;;;4985503;28;20026;-88
2023/04/16 03:20:08;;;;;;;7.45;3.20;;;;;;;;;;4963916;28;20153;-88
2023/04/16 03:22:33;;;;;;;7.35;3.20;;;;;;;;;;4960285;28;20029;-89
2023/04/16 03:25:00;;;;;;;9.00;4.05;;;;;;;;;;4967370;28;20038;-88
2023/04/16 03:27:26;;;;;;;13.60;6.07;;;;;;;;;;4993681;28;20095;-89
2023/04/16 03:29:52;;;;;;;10.52;5.00;;;;;;;;;;4951351;28;20038;-88
2023/04/16 03:32:18;;;;;;;6.00;3.17;;;;;;;;;;4991291;28;20026;-88
2023/04/16 03:34:44;;;;;;;6.35;2.92;;;;;;;;;;4989490;28;20515;-88
2023/04/16 03:37:10;;;;;;;9.43;3.30;;;;;;;;;;4969501;28;20039;-88
2023/04/16 03:39:36;;;;;;;5.28;2.65;;;;;;;;;;4942463;28;20030;-88
2023/04/16 03:42:02;;;;;;;8.43;3.75;;;;;;;;;;4969591;28;20847;-90
2023/04/16 03:44:29;;;;;;;7.47;3.13;;;;;;;;;;4970288;28;20033;-88
2023/04/16 03:46:55;;;;;;;5.45;2.63;;;;;;;;;;4958576;28;20152;-89
2023/04/16 03:49:21;;;;;;;6.05;2.38;;;;;;;;;;4993858;28;20045;-88
2023/04/16 03:51:47;;;;;;;6.30;2.58;;;;;;;;;;4973729;28;20030;-90
2023/04/16 03:54:13;;;;;;;5.68;2.88;;;;;;;;;;4983457;28;20087;-88
2023/04/16 03:56:40;;;;;;;8.13;3.50;;;;;;;;;;4964973;28;20454;-88
2023/04/16 03:59:06;;;;;;;6.05;3.05;;;;;;;;;;4977853;28;20132;-88
2023/04/16 04:01:33;;;;;;;5.40;2.70;;;;;;;;;;4967977;28;20033;-89
2023/04/16 04:03:59;;;;;;;5.72;2.95;;;;;;;;;;4944557;28;20030;-88
2023/04/16 04:06:25;;;;;;;7.40;2.85;;;;;;;;;;4983757;28;20073;-88
2023/04/16 04:08:51;;;;;;;4.82;2.25;;;;;;;;;;4974098;28;20479;-88
2023/04/16 04:11:17;;;;;;;5.85;2.40;;;;;;;;;;4961753;28;20041;-87
2023/04/16 04:13:43;;;;;;;6.15;2.55;;;;;;;;;;4996692;28;20499;-89
2023/04/16 04:16:09;;;;;;;6.03;2.53;;;;;;;;;;4959651;28;20033;-89
2023/04/16 04:18:35;;;;;;;5.78;2.42;;;;;;;;;;4979394;28;20105;-87
2023/04/16 04:21:04;;;;;;;4.90;1.92;;;;;;;;;;4993580;28;20022;-88
2023/04/16 04:23:30;;;;;;;9.15;3.22;;;;;;;;;;4984534;28;20018;-88
2023/04/16 04:25:56;;;;;;;6.05;2.10;;;;;;;;;;4997329;28;20045;-88
2023/04/16 04:28:22;;;;;;;4.47;2.25;;;;;;;;;;4980810;28;20081;-89
2023/04/16 04:30:48;;;;;;;5.47;2.42;;;;;;;;;;4993340;28;20057;-88
2023/04/16 04:33:14;;;;;;;6.07;2.88;;;;;;;;;;4984443;28;20120;-88
2023/04/16 04:35:40;;;;;;;4.50;2.13;;;;;;;;;;4963471;28;20038;-89
2023/04/16 04:38:06;;;;;;;5.88;2.50;;;;;;;;;;4999239;28;20491;-87
2023/04/16 04:40:32;;;;;;;2.95;1.65;;;;;;;;;;4983997;28;20105;-89
2023/04/16 04:42:58;;;;;;;4.93;2.33;;;;;;;;;;4966326;28;20109;-88
2023/04/16 04:45:24;;;;;;;5.38;2.60;;;;;;;;;;4985562;28;21346;-88
2023/04/16 04:47:51;;;;;;;7.03;2.95;;;;;;;;;;4991891;28;20029;-88
2023/04/16 04:50:17;;;;;;;5.32;2.38;;;;;;;;;;5005516;28;20169;-88
2023/04/16 04:52:43;;;;;;;9.77;3.15;;;;;;;;;;4968185;28;20125;-88
2023/04/16 04:55:09;;;;;;;6.78;2.63;;;;;;;;;;4997605;28;20031;-88
2023/04/16 04:57:35;;;;;;;4.35;2.05;;;;;;;;;;4969505;28;20079;-88
2023/04/16 05:00:03;;;;;;;7.18;3.50;;;;;;;;;;4969804;28;20042;-91
2023/04/16 05:02:29;;;;;;;6.47;2.83;;;;;;;;;;4996019;28;20034;-90
2023/04/16 05:04:55;;;;;;;7.88;3.00;;;;;;;;;;4997135;28;20037;-88
2023/04/16 05:07:21;;;;;;;7.07;3.40;;;;;;;;;;4986378;28;20054;-87
2023/04/16 05:09:47;;;;;;;13.13;4.78;;;;;;;;;;4964294;28;20038;-89
2023/04/16 05:12:13;;;;;;;9.82;3.35;;;;;;;;;;4992047;28;20759;-88
2023/04/16 05:14:39;;;;;;;7.25;3.42;;;;;;;;;;4986368;28;20038;-90
2023/04/16 05:17:06;;;;;;;9.07;4.00;;;;;;;;;;4980521;28;20181;-88
2023/04/16 05:19:32;;;;;;;8.25;3.40;;;;;;;;;;4977732;28;20030;-90
2023/04/16 05:21:58;;;;;;;8.98;4.40;;;;;;;;;;4986480;28;20096;-89
2023/04/16 05:24:24;;;;;;;6.30;3.20;;;;;;;;;;4960989;28;20018;-88
2023/04/16 05:26:50;;;;;;;7.68;3.17;;;;;;;;;;4981914;28;20037;-89
2023/04/16 05:29:17;;;;;;;7.95;5.18;;;;;;;;;;4972363;28;20084;-88
2023/04/16 05:31:43;;;;;;;9.60;4.72;;;;;;;;;;5003401;28;20022;-92
2023/04/16 05:34:09;;;;;;;10.02;4.75;;;;;;;;;;4983193;28;20037;-89
2023/04/16 05:36:35;;;;;;;10.98;4.60;;;;;;;;;;4984632;28;20033;-88
2023/04/16 05:39:01;;;;;;;10.82;4.63;;;;;;;;;;4977174;28;20685;-88
2023/04/16 05:41:27;;;;;;;8.35;5.38;;;;;;;;;;4978983;28;20018;-88
2023/04/16 05:43:53;;;;;;;9.60;4.68;;;;;;;;;;4988460;28;20034;-90
2023/04/16 05:46:19;;;;;;;13.38;4.97;;;;;;;;;;4988128;28;20038;-90
2023/04/16 05:48:46;;;;;;;14.75;6.57;;;;;;;;;;5008741;28;20033;-89
2023/04/16 05:51:12;;;;;;;13.25;6.65;;;;;;;;;;4999697;28;20487;-92
2023/04/16 05:53:38;;;;;;;15.40;6.53;;;;;;;;;;4978946;28;20044;-90
2023/04/16 05:56:04;;;;;;;11.88;5.70;;;;;;;;;;4989642;28;20494;-89
2023/04/16 05:58:30;;;;;;;15.70;6.25;;;;;;;;;;4993861;28;20034;-88
2023/04/16 06:00:56;;;;;;;12.50;6.47;;;;;;;;;;4984121;28;20034;-91
2023/04/16 06:03:22;;;;;;;14.07;5.93;;;;;;;;;;4991495;28;20041;-88
2023/04/16 06:05:48;;;;;;;11.60;6.22;;;;;;;;;;4968268;28;20030;-88
2023/04/16 06:08:14;;;;;;;12.07;6.18;;;;;;;;;;4999029;28;20034;-89
2023/04/16 06:10:40;;;;;;;12.88;5.95;;;;;;;;;;5003944;28;20034;-89
2023/04/16 06:13:06;;;;;;;16.90;8.27;;;;;;;;;;4975240;28;22003;-89
2023/04/16 06:15:32;;;;;;;14.35;6.57;;;;;;;;;;4987237;28;20459;-89
2023/04/16 06:17:58;;;;;;;12.95;6.97;;;;;;;;;;4993674;28;20026;-90
2023/04/16 06:20:24;;;;;;;14.07;6.72;;;;;;;;;;4979959;28;20335;-90
2023/04/16 06:22:51;;;;;;;13.75;6.18;;;;;;;;;;4970389;28;20148;-90
2023/04/16 06:25:17;;;;;;;16.75;8.02;;;;;;;;;;5001132;28;20121;-89
2023/04/16 06:27:43;;;;;;;11.32;5.75;;;;;;;;;;4992401;28;20045;-88
2023/04/16 06:30:13;;;;;;;11.55;6.90;;;;;;;;;;4992287;28;20027;-88
2023/04/16 06:32:39;;;;;;;14.52;6.22;;;;;;;;;;4986806;28;20034;-89
2023/04/16 06:35:05;;;;;;;11.93;6.30;;;;;;;;;;4961109;28;20038;-89
2023/04/16 06:37:31;;;;;;;13.65;6.35;;;;;;;;;;4983367;28;20628;-89
2023/04/16 06:39:57;;;;;;;14.77;5.07;;;;;;;;;;5001739;28;20113;-89
2023/04/16 06:42:23;;;;;;;14.40;7.28;;;;;;;;;;4991593;28;20038;-89
2023/04/16 06:44:49;;;;;;;12.35;5.20;;;;;;;;;;5000185;28;20408;-89
2023/04/16 06:47:15;;;;;;;11.02;6.15;;;;;;;;;;5000217;28;20088;-88
2023/04/16 06:49:41;;;;;;;10.68;5.97;;;;;;;;;;4970785;28;20026;-89
2023/04/16 06:52:07;;;;;;;11.25;5.53;;;;;;;;;;4993239;28;20058;-89
2023/04/16 06:54:33;;;;;;;12.30;6.30;;;;;;;;;;4985568;28;20137;-89
2023/04/16 06:56:59;;;;;;;13.00;5.93;;;;;;;;;;4948600;28;20231;-91
2023/04/16 06:59:25;;;;;;;9.52;4.63;;;;;;;;;;5000150;28;20384;-91
2023/04/16 07:01:52;;;;;;;14.13;6.07;;;;;;;;;;5020048;28;20045;-93
2023/04/16 07:04:17;;;;;;;11.68;4.97;;;;;;;;;;5009953;28;20045;-93
2023/04/16 07:06:44;;;;;;;12.57;5.28;;;;;;;;;;4997592;28;20031;-93
2023/04/16 07:09:10;;;;;;;10.20;5.05;;;;;;;;;;5013918;28;20033;-92
2023/04/16 07:11:36;;;;;;;11.02;4.70;;;;;;;;;;5031177;28;20034;-94
2023/04/16 07:14:03;;;;;;;10.65;4.97;;;;;;;;;;4979703;28;20533;-91
2023/04/16 07:16:29;;;;;;;10.25;5.43;;;;;;;;;;4966644;28;20387;-90
2023/04/16 07:18:55;;;;;;;10.80;6.22;;;;;;;;;;4980610;28;20571;-90
2023/04/16 07:21:21;;;;;;;13.52;5.13;;;;;;;;;;4996434;28;20178;-89
2023/04/16 07:23:47;;;;;;;12.55;5.00;;;;;;;;;;4973783;28;20077;-89
2023/04/16 07:26:14;;;;;;;10.18;4.95;;;;;;;;;;4984332;28;20038;-88
2023/04/16 07:28:40;;;;;;;11.00;4.72;;;;;;;;;;4977172;28;20037;-89
2023/04/16 07:31:06;;;;;;;10.15;5.78;;;;;;;;;;4964993;28;20039;-89
2023/04/16 07:33:32;;;;;;;11.00;5.78;;;;;;;;;;4963975;28;20038;-88
2023/04/16 07:35:58;;;;;;;13.25;5.07;;;;;;;;;;4980965;28;20026;-89
2023/04/16 07:38:24;;;;;;;11.18;5.88;;;;;;;;;;4955361;28;20977;-88
2023/04/16 07:40:50;;;;;;;13.00;5.28;;;;;;;;;;4986610;28;20254;-89
2023/04/16 07:43:16;;;;;;;11.95;6.05;;;;;;;;;;4989613;28;20030;-89
2023/04/16 07:45:42;;;;;;;9.90;5.22;;;;;;;;;;4957619;28;20026;-85
2023/04/16 07:48:08;;;;;;;9.45;4.25;;;;;;;;;;4984652;28;20093;-88
2023/04/16 07:50:34;;;;;;;12.57;6.40;;;;;;;;;;4994488;28;20140;-88
2023/04/16 07:53:00;;;;;;;11.30;5.35;;;;;;;;;;4996249;28;20042;-88
2023/04/16 07:55:26;;;;;;;10.63;4.30;;;;;;;;;;4968588;28;22476;-88
2023/04/16 07:57:52;;;;;;;9.73;3.83;;;;;;;;;;4981237;28;20049;-90
2023/04/16 08:00:18;;;;;;;8.13;3.42;;;;;;;;;;4973994;28;20570;-88
2023/04/16 08:02:44;;;;;;;7.68;3.78;;;;;;;;;;4997011;28;20368;-92
2023/04/16 08:05:15;;;;;;;6.18;3.58;;;;;;;;;;4981566;28;20034;-89
2023/04/16 08:07:41;;;;;;;7.03;3.20;;;;;;;;;;5002071;28;20096;-88
2023/04/16 08:10:07;;;;;;;7.70;3.83;;;;;;;;;;5001614;28;20030;-88
2023/04/16 08:12:34;;;;;;;6.55;3.17;;;;;;;;;;4998684;28;20050;-90
2023/04/16 08:15:00;;;;;;;6.78;3.25;;;;;;;;;;5006887;28;20049;-88
2023/04/16 08:17:27;;;;;;;7.20;3.33;;;;;;;;;;4993362;28;20219;-90
2023/04/16 08:19:53;;;;;;;7.53;3.65;;;;;;;;;;5004426;28;20026;-88
2023/04/16 08:22:19;;;;;;;7.55;3.15;;;;;;;;;;4993890;28;20037;-88
2023/04/16 08:24:45;;;;;;;8.98;3.58;;;;;;;;;;4979744;28;20027;-89
2023/04/16 08:27:11;;;;;;;8.60;3.15;;;;;;;;;;4981368;28;20315;-90
2023/04/16 08:29:37;;;;;;;9.63;4.07;;;;;;;;;;4988766;28;20061;-88
2023/04/16 08:32:03;;;;;;;21.13;8.80;;;;;;;;;;4983997;28;20053;-89
2023/04/16 08:34:29;;;;;;;9.52;4.32;;;;;;;;;;5004994;28;20351;-88
2023/04/16 08:36:55;;;;;;;6.40;3.40;;;;;;;;;;4981313;28;21652;-89
2023/04/16 08:39:21;;;;;;;5.95;3.10;;;;;;;;;;4991006;28;20291;-89
2023/04/16 08:41:47;;;;;;;6.75;3.28;;;;;;;;;;5000500;28;20038;-91
2023/04/16 08:44:20;;;;;;;8.27;3.70;;;;;;;;;;4994533;28;20031;-89
2023/04/16 08:46:47;;;;;;;8.20;3.92;;;;;;;;;;5003515;28;20030;-88
2023/04/16 08:49:17;;;;;;;6.13;2.85;;;;;;;;;;4978618;28;20683;-89
2023/04/16 08:51:44;;;;;;;6.43;3.25;;;;;;;;;;4978707;28;20352;-90
2023/04/16 08:54:12;;;;;;;8.82;3.22;;;;;;;;;;4978582;28;20062;-89
2023/04/16 08:56:39;;;;;;;9.18;3.90;;;;;;;;;;4965757;28;20502;-89
2023/04/16 08:59:06;;;;;;;6.22;2.80;;;;;;;;;;4962140;28;20121;-89
2023/04/16 09:01:32;;;;;;;7.45;3.10;;;;;;;;;;5002261;28;20069;-88
2023/04/16 09:04:00;;;;;;;6.50;3.08;;;;;;;;;;5004713;28;20026;-89
2023/04/16 09:06:27;;;;;;;5.15;2.55;;;10.30;99.90;;;;;;4995239;28;20062;-89
2023/04/16 09:08:54;;;;;;;6.38;3.60;;;;;;;;;;4968493;28;20037;-89
2023/04/16 09:11:22;;;;;;;7.97;2.92;;;;;;;;;;4974518;28;20034;-89
2023/04/16 09:13:48;;;;;;;5.88;2.58;;;;;;;;;;4980094;28;20351;-90
2023/04/16 09:16:14;;;;;;;8.65;2.88;;;;;;;;;;5012328;28;20034;-89
2023/04/16 09:18:40;;;;;;;6.38;3.60;;;;;;;;;;5013594;28;20038;-89
2023/04/16 09:21:08;;;;;;;9.15;3.67;;;;;;;;;;4996117;28;20056;-89
2023/04/16 09:23:37;;;;;;;6.70;3.35;;;;;;;;;;4994056;28;20026;-89
2023/04/16 09:26:04;;;;;;;9.60;3.90;;;;;;;;;;5008672;28;20102;-89
2023/04/16 09:28:40;;;;;;;9.50;5.20;;;;;;;;;;5002482;28;20026;-89
2023/04/16 09:31:12;;;;;;;7.40;3.95;;;;;;;;;;4984511;28;20035;-88
2023/04/16 09:33:38;;;;;;;6.10;3.10;;;;;;;;;;4985461;28;20035;-89
2023/04/16 09:36:06;;;;;;;6.07;3.20;;;;;;;;;;5002040;28;20076;-88
2023/04/16 09:38:51;;;;;;;10.05;2.97;;;;;;;;;;5012933;28;20030;-89
2023/04/16 09:41:17;;;;;;;4.97;3.17;;;;;;;;;;4995624;28;20030;-88
2023/04/16 09:43:54;;;;;;;5.55;2.95;;;;;;;;;;4998012;28;20450;-89
2023/04/16 09:46:21;;;;;;;8.45;3.08;;;;;;;;;;5007679;28;20022;-91
2023/04/16 09:48:47;;;;;;;5.95;3.05;;;;;;;;;;4997910;28;20109;-91
2023/04/16 09:51:14;;;;;;;7.55;3.75;;;;;;;;;;5007601;28;20053;-90
2023/04/16 09:53:40;;;;;;;6.57;3.10;;;;;;;;;;4996692;28;20053;-91
2023/04/16 09:56:07;;;;;;;8.82;3.40;;;;;;;;;;4966104;28;20130;-90
2023/04/16 09:58:35;;;;;;;5.63;3.35;;;;;;;;;;5002436;28;20033;-91
2023/04/16 10:01:06;;;;;;;6.90;3.22;;;;;;;;;;4997079;28;20034;-90
2023/04/16 10:03:33;;;;;;;4.97;2.40;;;;;;;;;;4975522;28;20038;-89
2023/04/16 10:06:00;;;;;;;5.78;2.92;;;;;;;;;;4983495;28;20034;-89
2023/04/16 10:08:27;;;;;;;6.18;3.00;;;;;;;;;;4985335;28;20106;-90
2023/04/16 10:10:53;;;;;;;11.07;3.85;;;;;;;;;;4998768;28;20031;-89
2023/04/16 10:13:19;;;;;;;7.00;3.42;;;;;;;;;;4996756;28;20089;-90
2023/04/16 10:15:46;;;;;;;5.32;3.13;;;;;;;;;;5008127;28;20038;-89
2023/04/16 10:18:12;;;;;;;10.35;4.72;;;;;;;;;;4992710;28;20030;-90
2023/04/16 10:20:38;;;;;;;4.20;2.60;;;;;;;;;;4984698;28;20035;-90
2023/04/16 10:23:04;;;;;;;3.67;1.48;;;;;;;;;;4995476;28;20084;-89
2023/04/16 10:25:31;;;;;;;5.80;2.13;;;;;;;;;;4994674;28;20027;-92
2023/04/16 10:27:58;;;;;;;4.88;2.40;;;;;;;;;;4979994;28;20042;-89
2023/04/16 10:30:25;;;;;;;3.20;1.65;;;;;;;;;;4978330;28;20022;-91
2023/04/16 10:32:54;;;;;;;5.22;2.65;;;;;;;;;;4973157;28;20066;-90
2023/04/16 10:35:20;;;;;;;6.45;3.83;;;;;;;;;;4985271;28;20049;-89
2023/04/16 10:37:46;;;;;;;5.18;1.42;;;;;;;;;;4982957;28;20034;-91
2023/04/16 10:40:25;;;;;;;3.50;2.28;;;;;;;;;;4991178;28;20030;-90
2023/04/16 10:42:55;;;;;;;3.33;1.58;;;;;;;;;;4984470;28;20058;-90
2023/04/16 10:45:26;;;;;;;2.40;1.38;;;;;;;;;;5003254;28;20034;-90
2023/04/16 10:47:56;;;;;;;4.13;2.47;;;;;;;;;;4996584;28;20033;-90
2023/04/16 10:50:22;;;;;;;4.10;1.85;;;;;;;;;;4992355;28;20055;-92
2023/04/16 10:52:48;;;;;;;3.85;2.47;;;;;;;;;;5001599;28;20110;-91
2023/04/16 10:55:17;;;;;;;5.72;2.60;;;;;;;;;;4990141;28;20623;-91
2023/04/16 10:57:43;;;;;;;4.70;2.40;;;;;;;;;;4986302;28;20033;-90
2023/04/16 11:00:22;;;;;;;3.90;2.63;;;;;;;;;;5000554;28;20051;-87
2023/04/16 11:02:53;;;;;;;79.28;29.95;;;;;;;;;;4997480;28;20022;-88
2023/04/16 11:05:21;;;;;;;130.30;49.30;;;;;;;;;;4978008;28;20042;-90
2023/04/16 11:07:48;;;;;;;16.45;9.40;;;10.20;99.90;;;;;;5000540;28;20034;-88
2023/04/16 11:10:14;;;;;;;5.10;2.78;;;;;;;;;;4965973;28;20145;-90
2023/04/16 11:12:41;;;;;;;2.90;1.52;;;;;;;;;;5001020;28;20077;-89
2023/04/16 11:15:07;;;;;;;3.33;1.58;;;;;;;;;;4996574;28;20439;-88
2023/04/16 11:17:37;;;;;;;3.60;1.83;;;;;;;;;;4993545;28;21351;-89
2023/04/16 11:20:05;;;;;;;5.35;2.35;;;10.50;99.90;;;;;;4986573;28;20085;-89
2023/04/16 11:25:37;;;;;;;2.55;1.50;;;;;;;;;;5022790;23;20412;-79
2023/04/16 11:28:03;;;;;;;3.33;1.48;;;;;;;;;;5041534;28;20037;-80
2023/04/16 11:30:30;;;;;;;3.55;1.90;;;;;;;;;;5034169;28;20029;-80
2023/04/16 11:32:56;;;;;;;3.25;1.65;;;;;;;;;;5029085;28;20408;-79
2023/04/16 11:35:22;;;;;;;5.45;2.75;;;;;;;;;;5032038;28;20044;-79
2023/04/16 11:37:48;;;;;;;5.28;1.83;;;;;;;;;;5023097;28;20088;-80
2023/04/16 11:40:14;;;;;;;4.10;1.88;;;;;;;;;;5020737;28;20028;-81
2023/04/16 11:42:41;;;;;;;2.95;1.40;;;;;;;;;;5027035;28;20029;-80
2023/04/16 11:45:07;;;;;;;4.95;1.98;;;;;;;;;;5018011;28;20036;-79
2023/04/16 11:47:44;;;;;;;3.80;1.33;;;11.80;99.90;;;;;;5037485;28;20032;-79
2023/04/16 11:50:20;;;;;;;3.63;1.55;;;;;;;;;;5016417;28;20097;-80
2023/04/16 11:52:47;;;;;;;4.75;1.70;;;;;;;;;;5040885;28;20013;-79
2023/04/16 11:55:13;;;;;;;4.75;1.50;;;;;;;;;;5033752;28;20036;-80
2023/04/16 11:57:39;;;;;;;2.72;1.25;;;;;;;;;;5020999;28;20048;-79
2023/04/16 12:00:08;;;;;;;3.92;1.20;;;;;;;;;;5034316;28;20024;-80
2023/04/16 12:02:41;;;;;;;5.70;1.33;;;;;;;;;;5020419;28;20036;-80
2023/04/16 12:05:26;;;;;;;4.03;1.58;;;;;;;;;;5036312;28;20025;-80
2023/04/16 12:07:52;;;;;;;2.08;1.15;;;;;;;;;;5037314;28;20040;-81
2023/04/16 12:10:20;;;;;;;3.00;1.35;;;;;;;;;;5030692;28;20028;-81
2023/04/16 12:12:48;;;;;;;2.53;1.52;;;;;;;;;;5041359;28;20022;-80
2023/04/16 12:15:16;;;;;;;2.28;1.27;;;;;;;;;;5053956;28;20040;-80
2023/04/16 12:17:53;;;;;;;2.90;1.38;;;;;;;;;;5053821;28;20036;-79
2023/04/16 12:20:26;;;;;;;3.97;1.65;;;;;;;;;;5040128;28;20104;-80
2023/04/16 12:23:00;;;;;;;2.60;1.20;;;;;;;;;;5034344;28;20025;-80
2023/04/16 12:25:26;;;;;;;3.58;1.88;;;;;;;;;;5032349;28;20036;-80
2023/04/16 12:27:54;;;;;;;5.18;2.17;;;;;;;;;;5032200;28;20033;-80
2023/04/16 12:30:21;;;;;;;2.90;1.85;;;;;;;;;;5036127;28;20025;-80
2023/04/16 12:32:48;;;;;;;4.85;2.38;;;;;;;;;;5035648;28;20147;-82
2023/04/16 12:35:36;;;;;;;3.45;1.63;;;;;;;;;;5028675;28;20045;-81
2023/04/16 12:38:14;;;;;;;5.25;2.20;;;;;;;;;;5037400;28;20416;-80
2023/04/16 12:41:01;;;;;;;4.03;2.00;;;;;;;;;;5029767;28;20033;-80
2023/04/16 12:43:27;;;;;;;3.58;1.85;;;;;;;;;;5030058;28;20029;-81
2023/04/16 12:45:56;;;;;;;3.97;2.05;;;;;;;;;;5031683;28;20025;-82
2023/04/16 12:48:31;;;;;;;2.50;1.15;;;;;;;;;;5032238;28;20033;-81
2023/04/16 12:50:57;;;;;;;5.03;1.90;;;;;;;;;;5018283;28;20063;-80
2023/04/16 12:53:23;;;;;;;3.75;1.55;;;;;;;;;;5027077;28;20037;-81
2023/04/16 12:55:49;;;;;;;5.85;2.55;;;;;;;;;;5045737;28;20045;-81
2023/04/16 12:58:15;;;;;;;2.60;1.52;;;;;;;;;;5044818;28;20055;-80
2023/04/16 13:00:41;;;;;;;2.28;1.35;;;;;;;;;;5047035;28;20029;-80
2023/04/16 13:03:07;;;;;;;3.22;1.30;;;;;;;;;;5042547;28;20317;-81
2023/04/16 13:05:34;;;;;;;3.60;1.52;;;;;;;;;;5011299;28;20025;-81
2023/04/16 13:08:18;;;;;;;4.82;1.70;;;;;;;;;;5029881;28;20021;-81
2023/04/16 13:11:12;;;;;;;4.18;1.58;;;;;;;;;;5043963;28;20608;-80
2023/04/16 13:13:38;;;;;;;3.25;1.48;;;;;;;;;;5045963;28;20061;-79
2023/04/16 13:16:07;;;;;;;3.28;1.60;;;;;;;;;;5019451;28;20068;-78
2023/04/16 13:18:36;;;;;;;4.78;2.28;;;;;;;;;;5037587;28;20137;-81
2023/04/16 13:21:11;;;;;;;2.55;1.48;;;;;;;;;;5022900;28;20037;-80
2023/04/16 13:23:36;;;;;;;3.85;1.80;;;;;;;;;;5022917;28;20383;-81
2023/04/16 13:26:02;;;;;;;2.70;1.40;;;;;;;;;;5028538;28;20187;-81
2023/04/16 13:28:52;;;;;;;3.35;1.80;;;;;;;;;;5031545;28;20221;-82
2023/04/16 13:31:19;;;;;;;3.58;1.75;;;;;;;;;;5032212;28;20172;-81
2023/04/16 13:33:45;;;;;;;5.75;1.98;;;;;;;;;;5040416;28;20792;-82
2023/04/16 13:36:11;;;;;;;3.35;1.63;;;;;;;;;;5051861;28;20060;-81
2023/04/16 13:38:39;;;;;;;3.47;1.60;;;;;;;;;;5045396;28;20028;-81
2023/04/16 13:41:05;;;;;;;4.40;2.25;;;;;;;;;;5057325;28;20519;-81
2023/04/16 13:43:31;;;;;;;2.92;1.85;;;;;;;;;;5026723;28;20029;-82
2023/04/16 13:45:58;;;;;;;2.40;1.40;;;;;;;;;;5029653;28;20956;-81
2023/04/16 13:48:26;;;;;;;3.28;1.92;;;;;;;;;;5053297;28;20025;-81
2023/04/16 13:50:52;;;;;;;4.32;2.05;;;;;;;;;;5033009;28;20037;-80
2023/04/16 13:53:18;;;;;;;3.35;1.75;;;;;;;;;;5040878;28;20494;-81
2023/04/16 13:55:44;;;;;;;4.63;1.80;;;;;;;;;;5045943;28;20552;-80
2023/04/16 13:58:27;;;;;;;3.60;1.83;;;;;;;;;;5030839;28;20029;-80
2023/04/16 14:00:53;;;;;;;7.40;2.53;;;;;;;;;;5027955;28;20108;-81
2023/04/16 14:03:19;;;;;;;8.48;2.10;;;;;;;;;;5033803;28;20116;-80
2023/04/16 14:05:45;;;;;;;5.45;2.42;;;;;;;;;;5030397;28;20029;-80
2023/04/16 14:08:13;;;;;;;6.05;2.40;;;;;;;;;;5019762;28;20052;-81
2023/04/16 14:10:39;;;;;;;7.20;3.33;;;;;;;;;;5010556;28;20032;-81
2023/04/16 14:13:05;;;;;;;6.95;2.97;;;;;;;;;;5022738;28;20021;-81
2023/04/16 14:15:31;;;;;;;3.40;2.17;;;;;;;;;;5026616;28;20036;-83
2023/04/16 14:17:57;;;;;;;4.22;2.30;;;;;;;;;;5030511;28;20481;-82
2023/04/16 14:20:23;;;;;;;3.50;2.00;;;;;;;;;;5021220;28;20028;-81
2023/04/16 14:22:50;;;;;;;4.03;2.08;;;;;;;;;;5024244;28;20052;-82
2023/04/16 14:25:16;;;;;;;4.10;2.20;;;;;;;;;;5031960;28;20115;-81
2023/04/16 14:27:42;;;;;;;5.53;2.40;;;;;;;;;;5019603;28;20033;-85
2023/04/16 14:30:08;;;;;;;4.93;2.67;;;;;;;;;;5027075;28;20037;-82
2023/04/16 14:32:35;;;;;;;4.55;2.83;;;;;;;;;;5021474;28;20052;-82
2023/04/16 14:35:00;;;;;;;4.78;2.45;;;;;;;;;;5016895;28;20176;-82
2023/04/16 14:37:26;;;;;;;5.68;2.85;;;;;;;;;;5035741;28;20029;-82
2023/04/16 14:39:52;;;;;;;7.57;2.78;;;;;;;;;;5025787;28;20041;-84
2023/04/16 14:42:18;;;;;;;9.73;4.85;;;;;;;;;;5025644;28;20164;-84